Pedro Bay, AK

12:33 AM AKDT em 03 de Agosto de 2015 (GMT -0800)
Iliamna | | Change Station
CLOSE
Current Station
Aeroporto
Location: Iliamna,
Altitude: 161 ft
Estações Meteorológicas Próximas

Elev 161 ft 59.75 °N, 154.91 °W | Updated 40 minutes ago

Clear
Céu Limpo
58 °F
Aparente 58 °F
N
4
Vento Variável Vento de Norte

Hoje
Máxima -- | Mínima -- °F
--% Possibilidade de Precip.
Ontem
Máxima -- | Mínima -- °F
Precip. -- pol
6:06 AM 10:43 PM
Lua minguante, 88% visible
Pressão 30.13 pol
Visibilidade 10.0 milhas
Nuvens Céu Limpo
Ponto de Orvalho 52 °F
Humidade 81%
Chuva 0.00 pol
Altura de Neve Não disponível
UV 0 em vez de 12
Pólen Não disponível
Qualidade do Ar Não disponível
Flu Activity Não disponível
METAR PAIL 030753Z AUTO 36003KT 10SM CLR 14/11 A3013 RMK AO2 SLP203 T01440111 TSNO

More Conditions Fewer Conditions

Pressão 30.13 pol
Visibilidade 10.0 milhas
Nuvens Céu Limpo
Ponto de Orvalho 52 °F
Humidade 81%
Chuva 0.00 pol
Altura de Neve Não disponível
UV 0 em vez de 12
Pólen Não disponível
Qualidade do Ar Não disponível
Flu Activity Não disponível
METAR PAIL 030753Z AUTO 36003KT 10SM CLR 14/11 A3013 RMK AO2 SLP203 T01440111 TSNO

More Conditions Fewer Conditions

10-Day Weather Forecast

×

Almanac

Astronomia

Aug. 03, 2015 Nascer Pôr
Hora atual
Crepúsculo civil
Crepúsculo náutico
Crepúsculo astronómico
Lua
Comprimento da luz visível
Duração do Dia
Tomorrow will be .
, % of the Moon is Illuminated

Extremos de Hoje

situação na parte mais alta situação na parte mais baixa

Community

WunderPhotos

Upload Photos

1,843,592 fotografias inseridas!

WunderBlogs® & News

Nearby

Qualidade do Ar

  Qualidade do Ar Índice da Q.A. Poluente
Not available.

Altura da Neve

Estação altura Altitude

Actividade Sísmisca

Cidade Distância Mag. Hora & Data
Mínima magnitude apresentada é 2.5.

Temperaturas das Águas Costeiras

Local Temperatura

Stations

Estações Meteorológicas Próximas

Localização da Estação Temp. Sensação Térmica Ponto de Orvalho Humidade Vento Precip. Elev Actualizado Tipo